Time;durP1;ratioP1;P1;durP2;ratioP2;P2;SDS_P1;SDS_P2;PMS_P1;PMS_P2;Temp;Humidity;BMP_temperature;BMP_pressure;BME280_temperature;BME280_humidity;BME280_pressure;Samples;Min_cycle;Max_cycle;Signal;HPM_P1;HPM_P2
2022/02/11 00:09:10;;;;;;;7.30;3.00;;;7.70;97.40;;;;;;4991612;28;20038;-78
2022/02/11 00:11:37;;;;;;;11.25;3.53;;;7.80;97.50;;;;;;4991719;28;20026;-78
2022/02/11 00:14:05;;;;;;;10.90;3.78;;;7.80;97.50;;;;;;4991409;28;20034;-79
2022/02/11 00:16:31;;;;;;;8.60;3.88;;;7.80;97.40;;;;;;4991472;28;20031;-78
2022/02/11 00:18:59;;;;;;;11.35;3.72;;;7.90;97.50;;;;;;4991553;28;20054;-78
2022/02/11 00:21:31;;;;;;;18.45;4.35;;;7.60;97.60;;;;;;4991999;28;20102;-78
2022/02/11 00:23:57;;;;;;;8.57;3.63;;;7.70;97.50;;;;;;4991314;28;20051;-78
2022/02/11 00:26:37;;;;;;;7.90;3.85;;;7.80;97.50;;;;;;4991658;28;20050;-80
2022/02/11 00:34:05;;;;;;;14.07;3.63;;;7.50;97.80;;;;;;4991801;28;20031;-79
2022/02/11 00:36:39;;;;;;;8.65;3.45;;;7.60;97.60;;;;;;4991969;28;20034;-78
2022/02/11 00:45:21;;;;;;;13.90;3.90;;;7.60;97.40;;;;;;4991188;28;20027;-79
2022/02/11 00:53:41;;;;;;;14.00;2.55;;;7.60;97.10;;;;;;4991392;28;20081;-80
2022/02/11 01:05:57;;;;;;;14.82;2.72;;;7.70;96.70;;;;;;4991323;28;20437;-79
2022/02/11 01:08:23;;;;;;;14.27;2.83;;;7.60;96.60;;;;;;4990986;28;20053;-79
2022/02/11 01:10:48;;;;;;;7.82;2.17;;;7.60;96.70;;;;;;4990937;28;20380;-78
2022/02/11 01:13:14;;;;;;;10.73;2.40;;;7.70;96.70;;;;;;4991047;28;20465;-78
2022/02/11 01:15:46;;;;;;;9.55;2.13;;;7.60;96.40;;;;;;4989869;28;20022;-79
2022/02/11 01:18:13;;;;;;;10.38;1.95;;;7.70;96.50;;;;;;4991591;28;20027;-78
2022/02/11 01:20:48;;;;;;;18.63;2.27;;;7.70;96.40;;;;;;4991167;28;20034;-78
2022/02/11 01:23:42;;;;;;;13.27;2.38;;;7.70;96.30;;;;;;4990910;28;20031;-78
2022/02/11 01:34:27;;;;;;;11.00;1.90;;;7.70;96.00;;;;;;4994824;28;20058;-77
2022/02/11 01:37:21;;;;;;;8.35;1.88;;;7.60;95.80;;;;;;4994485;28;20062;-78
2022/02/11 01:43:46;;;;;;;10.63;1.70;;;7.60;95.90;;;;;;4994948;28;20659;-79
2022/02/11 02:06:26;;;;;;;7.07;1.85;;;7.50;95.90;;;;;;4994125;28;20333;-78
2022/02/11 02:16:58;;;;;;;9.85;2.28;;;7.50;95.60;;;;;;4993855;28;20100;-79
2022/02/11 02:19:35;;;;;;;11.20;2.50;;;7.60;95.60;;;;;;4993456;28;20460;-79
2022/02/11 02:33:10;;;;;;;15.00;3.35;;;7.60;95.90;;;;;;4983160;28;20468;-79
2022/02/11 02:56:53;;;;;;;11.30;4.03;;;7.50;96.30;;;;;;5012563;28;20125;-76
2022/02/11 03:14:37;;;;;;;14.63;4.32;;;7.60;96.30;;;;;;5012579;28;20116;-77
2022/02/11 03:48:51;;;;;;;18.20;5.43;;;7.50;96.50;;;;;;5011942;28;20212;-78
2022/02/11 03:49:26;;;;;;;19.40;5.50;;;7.30;96.60;;;;;;5011445;28;20033;-76
2022/02/11 03:52:27;;;;;;;12.07;4.82;;;7.30;96.50;;;;;;4994264;28;20100;-78
2022/02/11 04:56:59;;;;;;;15.02;7.57;;;6.30;97.20;;;;;;5010887;28;20467;-76
2022/02/11 05:02:00;;;;;;;16.80;8.68;;;6.20;97.30;;;;;;5014833;28;20336;-77
2022/02/11 05:04:26;;;;;;;14.88;8.27;;;6.20;97.40;;;;;;5014745;28;20141;-76
2022/02/11 05:06:51;;;;;;;21.83;9.27;;;6.30;97.40;;;;;;5014830;28;20017;-77
2022/02/11 05:09:17;;;;;;;17.80;9.50;;;6.10;97.40;;;;;;5015089;28;20034;-77
2022/02/11 05:11:43;;;;;;;23.25;9.35;;;6.20;97.30;;;;;;5014453;28;20081;-78
2022/02/11 05:14:09;;;;;;;18.40;8.88;;;6.40;97.40;;;;;;4997230;28;20033;-77
2022/02/11 05:16:35;;;;;;;23.25;8.63;;;6.10;97.40;;;;;;5014477;28;20030;-76
2022/02/11 05:19:01;;;;;;;27.50;8.73;;;6.10;97.40;;;;;;5014440;28;20037;-76
2022/02/11 05:21:26;;;;;;;21.58;9.43;;;6.00;97.60;;;;;;5014930;28;20026;-76
2022/02/11 05:23:52;;;;;;;23.90;9.25;;;6.00;97.60;;;;;;4996548;28;20297;-77
2022/02/11 05:26:19;;;;;;;15.18;8.85;;;6.00;97.50;;;;;;5014040;28;20522;-77
2022/02/11 05:28:45;;;;;;;20.52;9.55;;;6.10;97.60;;;;;;4996513;28;20096;-77
2022/02/11 05:31:10;;;;;;;20.85;9.98;;;6.00;97.60;;;;;;5014278;28;20030;-77
2022/02/11 05:33:36;;;;;;;24.30;10.10;;;6.10;97.50;;;;;;5014163;28;20034;-77
2022/02/11 05:36:02;;;;;;;21.15;9.95;;;6.10;97.50;;;;;;4997067;28;20582;-77
2022/02/11 05:38:28;;;;;;;25.95;9.73;;;6.10;97.40;;;;;;5014143;28;20375;-77
2022/02/11 05:40:53;;;;;;;22.35;10.77;;;6.10;97.40;;;;;;4996563;28;20018;-76
2022/02/11 05:43:19;;;;;;;23.15;10.23;;;6.10;97.50;;;;;;5013892;28;20628;-77
2022/02/11 05:45:45;;;;;;;26.45;10.93;;;6.10;97.40;;;;;;5013671;28;20022;-74
2022/02/11 05:48:11;;;;;;;26.73;11.38;;;6.20;97.50;;;;;;4996885;28;20326;-77
2022/02/11 05:50:37;;;;;;;19.88;10.55;;;6.20;97.50;;;;;;5013963;28;20037;-77
2022/02/11 05:53:05;;;;;;;22.58;11.25;;;6.20;97.80;;;;;;5013858;28;20101;-76
2022/02/11 05:55:31;;;;;;;;;;;6.20;97.90;;;;;;5014313;28;20023;-77
2022/02/11 05:57:57;;;;;;;27.60;10.95;;;6.30;97.70;;;;;;5014074;28;19913;-77
2022/02/11 06:00:22;;;;;;;28.52;12.23;;;6.30;97.80;;;;;;5014263;28;20436;-77
2022/02/11 06:02:48;;;;;;;27.05;11.23;;;6.30;98.00;;;;;;4996548;28;20791;-77
2022/02/11 06:05:16;;;;;;;28.33;12.00;;;6.40;98.00;;;;;;5014100;28;20108;-77
2022/02/11 06:07:42;;;;;;;;;;;6.30;98.40;;;;;;5014179;28;20056;-77
2022/02/11 06:10:08;;;;;;;29.83;12.25;;;6.30;98.40;;;;;;5012956;28;20426;-76
2022/02/11 06:12:34;;;;;;;26.25;11.95;;;6.40;98.30;;;;;;4996154;28;20036;-76
2022/02/11 06:14:59;;;;;;;23.73;12.15;;;6.40;98.40;;;;;;4996347;28;20372;-76
2022/02/11 06:17:25;;;;;;;24.42;11.80;;;6.40;98.60;;;;;;5015754;28;20022;-76
2022/02/11 06:19:51;;;;;;;25.60;12.50;;;6.40;98.50;;;;;;5015221;28;20080;-77
2022/02/11 06:22:17;;;;;;;26.88;12.00;;;6.40;98.80;;;;;;5013327;28;20053;-77
2022/02/11 06:24:43;;;;;;;19.98;11.40;;;6.50;99.00;;;;;;5012796;28;20042;-77
2022/02/11 06:27:08;;;;;;;20.65;11.75;;;6.40;98.90;;;;;;5013977;28;20321;-77
2022/02/11 06:29:35;;;;;;;22.33;12.13;;;6.40;99.20;;;;;;5013294;28;20044;-76
2022/02/11 06:32:04;;;;;;;24.27;11.88;;;6.50;99.20;;;;;;5013392;28;20423;-77
2022/02/11 06:34:30;;;;;;;26.08;11.35;;;6.50;99.10;;;;;;5013264;28;20042;-77
2022/02/11 06:36:56;;;;;;;21.80;11.40;;;6.60;99.20;;;;;;5013217;28;20034;-77
2022/02/11 06:39:24;;;;;;;26.30;11.68;;;6.50;99.10;;;;;;5013322;28;20018;-76
2022/02/11 06:41:53;;;;;;;22.55;11.13;;;6.40;99.20;;;;;;5012781;28;20022;-77
2022/02/11 06:44:20;;;;;;;22.27;10.27;;;6.50;99.30;;;;;;5013209;28;20034;-76
2022/02/11 06:46:45;;;;;;;20.58;10.25;;;6.50;99.30;;;;;;5013341;28;20037;-75
2022/02/11 06:49:11;;;;;;;16.92;10.25;;;6.50;99.10;;;;;;5012685;28;20034;-76
2022/02/11 06:51:36;;;;;;;18.40;10.07;;;6.60;99.30;;;;;;5012500;28;20029;-77
2022/02/11 06:54:02;;;;;;;20.73;8.52;;;6.60;99.30;;;;;;5013385;28;20030;-77
2022/02/11 06:56:28;;;;;;;15.25;8.50;;;6.50;99.10;;;;;;5013347;28;20066;-75
2022/02/11 06:58:55;;;;;;;15.18;8.27;;;6.50;99.10;;;;;;5012651;28;20034;-75
2022/02/11 07:01:21;;;;;;;15.18;8.27;;;6.60;99.40;;;;;;5012959;28;20188;-76
2022/02/11 07:03:47;;;;;;;16.67;7.00;;;6.60;99.00;;;;;;5012650;28;20161;-76
2022/02/11 07:06:12;;;;;;;16.73;7.47;;;6.60;99.50;;;;;;5013034;28;20573;-76
2022/02/11 07:08:38;;;;;;;14.55;6.75;;;6.60;99.40;;;;;;5012559;28;20037;-76
2022/02/11 07:11:04;;;;;;;16.92;6.60;;;6.60;99.70;;;;;;5012698;28;20068;-75
2022/02/11 07:13:29;;;;;;;13.10;7.18;;;6.60;99.70;;;;;;5012765;28;20112;-76
2022/02/11 07:15:55;;;;;;;12.75;6.38;;;6.70;99.60;;;;;;4996110;28;20026;-78
2022/02/11 07:18:20;;;;;;;11.88;6.95;;;6.70;99.50;;;;;;5013812;28;20461;-73
2022/02/11 07:20:46;;;;;;;14.52;6.38;;;6.60;99.60;;;;;;5012742;28;20038;-81
2022/02/11 07:23:13;;;;;;;14.95;7.30;;;6.60;99.60;;;;;;4998896;28;20041;-84
2022/02/11 07:25:39;;;;;;;12.15;6.75;;;6.60;99.70;;;;;;5017388;28;20378;-81
2022/02/11 07:28:05;;;;;;;9.98;6.32;;;6.60;99.90;;;;;;5013996;28;20103;-80
2022/02/11 07:30:32;;;;;;;14.38;7.25;;;6.60;99.90;;;;;;4999794;28;20034;-87
2022/02/11 07:32:58;;;;;;;9.23;6.55;;;6.60;99.90;;;;;;4994079;28;20045;-80
2022/02/11 07:35:24;;;;;;;14.80;6.68;;;6.60;99.90;;;;;;4994602;28;20041;-85
2022/02/11 07:37:52;;;;;;;13.40;6.63;;;6.60;99.90;;;;;;4996084;28;20023;-86
2022/02/11 07:40:18;;;;;;;8.45;5.72;;;6.60;99.90;;;;;;5013577;28;20041;-82
2022/02/11 07:42:45;;;;;;;11.30;5.85;;;6.50;99.90;;;;;;5013912;28;20030;-84
2022/02/11 07:45:11;;;;;;;19.63;10.02;;;6.60;99.90;;;;;;5014339;28;20018;-79
2022/02/11 07:47:38;;;;;;;8.55;5.40;;;6.60;99.90;;;;;;4993511;28;20046;-80
2022/02/11 07:50:05;;;;;;;13.55;5.88;;;6.60;99.90;;;;;;5012093;28;20129;-80
2022/02/11 07:52:31;;;;;;;19.95;5.85;;;6.60;99.90;;;;;;4994479;28;20371;-79
2022/02/11 07:54:57;;;;;;;13.75;5.25;;;6.70;99.90;;;;;;5011968;28;20064;-85
2022/02/11 07:57:24;;;;;;;11.30;4.85;;;6.80;99.90;;;;;;5012737;28;20091;-83
2022/02/11 07:59:50;;;;;;;13.90;4.72;;;6.80;99.90;;;;;;5012129;28;20443;-82
2022/02/11 08:02:16;;;;;;;8.20;3.63;;;6.80;99.90;;;;;;5012043;28;20053;-87
2022/02/11 08:04:41;;;;;;;8.20;4.00;;;6.80;99.90;;;;;;5011638;28;20054;-82
2022/02/11 08:07:07;;;;;;;19.55;3.97;;;6.80;99.90;;;;;;5012146;28;20060;-79
2022/02/11 08:09:32;;;;;;;11.10;3.03;;;6.90;99.90;;;;;;5011753;28;20041;-85
2022/02/11 08:11:58;;;;;;;6.03;2.72;;;6.90;99.80;;;;;;4994064;28;20050;-79
2022/02/11 08:14:27;;;;;;;11.57;3.72;;;6.90;99.80;;;;;;4993942;28;20041;-76
2022/02/11 08:16:53;;;;;;;9.95;2.22;;;7.00;99.80;;;;;;5011825;28;20478;-77
2022/02/11 08:19:19;;;;;;;12.75;2.20;;;7.00;99.90;;;;;;5011766;28;20116;-81
2022/02/11 08:21:46;;;;;;;8.50;2.38;;;7.00;99.70;;;;;;5011701;28;20033;-77
2022/02/11 08:24:13;;;;;;;8.25;2.42;;;7.10;99.70;;;;;;5011634;28;20052;-74
2022/02/11 08:26:38;;;;;;;4.38;1.77;;;7.10;99.80;;;;;;4994593;28;20038;-82
2022/02/11 08:29:04;;;;;;;7.60;1.75;;;7.10;99.70;;;;;;5011392;28;20041;-84
2022/02/11 08:31:33;;;;;;;13.88;2.55;;;7.10;99.70;;;;;;5011585;28;20061;-80
2022/02/11 08:33:58;;;;;;;5.60;1.63;;;7.00;99.50;;;;;;4993867;28;20040;-77
2022/02/11 08:36:24;;;;;;;6.80;1.65;;;7.10;99.40;;;;;;5012533;28;20108;-82
2022/02/11 08:38:50;;;;;;;8.50;1.52;;;7.10;99.40;;;;;;4994889;28;20026;-78
2022/02/11 08:41:15;;;;;;;7.30;1.58;;;7.10;99.40;;;;;;5011677;28;20463;-76
2022/02/11 08:43:41;;;;;;;5.90;1.33;;;7.10;99.60;;;;;;4993859;28;20344;-85
2022/02/11 08:46:07;;;;;;;7.47;1.73;;;7.20;99.60;;;;;;5011891;28;20025;-82
2022/02/11 08:48:33;;;;;;;9.75;1.77;;;7.20;99.70;;;;;;5011442;28;20044;-75
2022/02/11 08:50:58;;;;;;;5.25;1.63;;;7.10;99.90;;;;;;5011427;28;20138;-76
2022/02/11 08:53:24;;;;;;;5.05;1.33;;;7.20;99.90;;;;;;5011109;28;20137;-75
2022/02/11 08:55:50;;;;;;;6.38;2.00;;;7.20;99.90;;;;;;5010962;28;20152;-75
2022/02/11 08:58:19;;;;;;;5.35;2.38;;;7.20;99.90;;;;;;5011013;28;20105;-76
2022/02/11 09:00:48;;;;;;;8.73;1.50;;;7.10;99.90;;;;;;5011531;28;20412;-80
2022/02/11 09:03:14;;;;;;;6.80;1.48;;;7.10;99.90;;;;;;5012474;28;20022;-83
2022/02/11 09:05:40;;;;;;;6.28;1.17;;;7.10;99.90;;;;;;5012404;28;20034;-81
2022/02/11 09:08:06;;;;;;;7.22;1.58;;;7.10;99.90;;;;;;4995148;28;20382;-83
2022/02/11 09:10:31;;;;;;;8.48;1.20;;;7.10;99.90;;;;;;5012126;28;20034;-74
2022/02/11 09:13:00;;;;;;;5.75;1.27;;;7.10;99.90;;;;;;5012368;28;20421;-80
2022/02/11 09:15:27;;;;;;;4.63;1.48;;;7.10;99.90;;;;;;4995205;28;20084;-86
2022/02/11 09:17:54;;;;;;;10.20;1.70;;;7.10;99.90;;;;;;5012721;28;20061;-82
2022/02/11 09:20:20;;;;;;;6.57;1.38;;;7.10;99.90;;;;;;4994859;28;20045;-81
2022/02/11 09:22:46;;;;;;;6.60;1.00;;;7.10;99.90;;;;;;4994002;28;20068;-79
2022/02/11 09:25:13;;;;;;;7.97;1.88;;;7.10;99.90;;;;;;4994856;28;20042;-79
2022/02/11 09:27:43;;;;;;;7.47;1.33;;;7.10;99.90;;;;;;5012617;28;20076;-77
2022/02/11 09:30:15;;;;;;;5.97;1.20;;;7.10;99.90;;;;;;5012791;28;20036;-77
2022/02/11 09:32:42;;;;;;;6.13;1.15;;;7.20;99.90;;;;;;5012215;28;20036;-79
2022/02/11 09:35:09;;;;;;;5.43;1.33;;;7.20;99.90;;;;;;4994842;28;20415;-79
2022/02/11 09:37:35;;;;;;;5.72;0.82;;;7.10;99.90;;;;;;4994042;28;20064;-74
2022/02/11 09:40:02;;;;;;;8.77;2.70;;;7.10;99.90;;;;;;4994083;28;20092;-75
2022/02/11 09:42:29;;;;;;;5.30;1.20;;;7.10;99.90;;;;;;5012016;28;20037;-77
2022/02/11 09:44:56;;;;;;;7.82;1.40;;;7.00;99.90;;;;;;5012693;28;20034;-85
2022/02/11 09:47:21;;;;;;;6.28;1.98;;;7.10;99.90;;;;;;5016607;28;20295;-85
2022/02/11 09:49:47;;;;;;;4.93;0.85;;;7.00;99.90;;;;;;5015823;28;20138;-83
2022/02/11 09:52:14;;;;;;;3.00;0.82;;;7.10;99.90;;;;;;4998147;28;20364;-82
2022/02/11 09:54:40;;;;;;;4.90;0.97;;;7.00;99.90;;;;;;4997318;28;20038;-80
2022/02/11 09:57:06;;;;;;;3.45;0.70;;;7.10;99.90;;;;;;5016023;28;20313;-83
2022/02/11 09:59:31;;;;;;;7.82;1.30;;;7.10;99.90;;;;;;4998074;28;20037;-81
2022/02/11 10:01:59;;;;;;;3.83;1.00;;;7.00;99.90;;;;;;5015709;28;20046;-81
2022/02/11 10:04:25;;;;;;;4.32;1.30;;;7.00;99.90;;;;;;5015418;28;20030;-82
2022/02/11 10:06:52;;;;;;;4.38;1.27;;;6.90;99.90;;;;;;5015610;28;20370;-80
2022/02/11 10:09:23;;;;;;;8.07;1.13;;;6.90;99.90;;;;;;5015878;28;20038;-81
2022/02/11 10:11:50;;;;;;;7.70;1.30;;;7.00;99.90;;;;;;5015387;28;20056;-81
2022/02/11 10:14:22;;;;;;;7.40;3.25;;;7.00;99.90;;;;;;4997717;28;20030;-78
2022/02/11 10:17:15;;;;;;;5.45;0.90;;;6.90;99.90;;;;;;4998639;28;20034;-81
2022/02/11 10:19:41;;;;;;;6.43;1.38;;;6.90;99.90;;;;;;5018045;28;20026;-86
2022/02/11 10:22:15;;;;;;;8.02;1.42;;;6.90;99.90;;;;;;5015940;28;20117;-82
2022/02/11 10:24:41;;;;;;;6.35;1.35;;;6.90;99.90;;;;;;5015910;28;20122;-82
2022/02/11 10:27:30;;;;;;;6.45;0.70;;;7.00;99.90;;;;;;5016680;28;20097;-83
2022/02/11 10:29:58;;;;;;;5.88;0.88;;;6.90;99.90;;;;;;4998327;28;20034;-81
2022/02/11 10:32:46;;;;;;;4.80;1.17;;;6.80;99.90;;;;;;5015661;28;20527;-83
2022/02/11 10:35:16;;;;;;;5.05;0.70;;;7.00;99.90;;;;;;5015276;28;20471;-82
2022/02/11 10:38:09;;;;;;;6.25;1.23;;;7.00;99.90;;;;;;4998059;28;20541;-80
2022/02/11 10:40:40;;;;;;;8.50;1.30;;;7.10;99.90;;;;;;5015116;28;20029;-82
2022/02/11 10:43:25;;;;;;;6.68;1.02;;;7.20;99.90;;;;;;5014897;28;20124;-83
2022/02/11 10:45:50;;;;;;;4.78;0.88;;;7.20;99.90;;;;;;5014975;28;20363;-80
2022/02/11 10:48:19;;;;;;;4.05;0.85;;;7.20;99.90;;;;;;4997975;28;20041;-81
2022/02/11 10:51:06;;;;;;;7.47;1.48;;;7.30;99.90;;;;;;5015378;28;20018;-82
2022/02/11 10:53:34;;;;;;;6.43;0.83;;;7.20;99.90;;;;;;5015250;28;20099;-81
2022/02/11 10:56:02;;;;;;;6.35;0.95;;;7.30;99.90;;;;;;4997645;28;20260;-82
2022/02/11 10:58:28;;;;;;;;;;;7.40;99.90;;;;;;5014431;28;20022;-84
2022/02/11 11:01:00;;;;;;;2.70;0.82;;;7.50;99.90;;;;;;5014817;28;19910;-80
2022/02/11 11:03:28;;;;;;;4.97;1.15;;;7.40;99.90;;;;;;5015230;28;20010;-82
2022/02/11 11:05:55;;;;;;;3.65;0.75;;;7.40;99.90;;;;;;4996408;28;20026;-79
2022/02/11 11:08:22;;;;;;;8.02;1.45;;;7.50;99.90;;;;;;4995766;28;20034;-81
2022/02/11 11:10:49;;;;;;;3.15;0.95;;;7.40;99.90;;;;;;5013324;28;20049;-81
2022/02/11 11:13:16;;;;;;;5.68;1.10;;;7.30;99.90;;;;;;4995768;28;20030;-85
2022/02/11 11:15:43;;;;;;;4.70;1.00;;;7.40;99.90;;;;;;5013619;28;20026;-79
2022/02/11 11:18:11;;;;;;;5.45;1.00;;;7.30;99.90;;;;;;4995388;28;20124;-79
2022/02/11 11:20:38;;;;;;;6.35;1.10;;;7.40;99.90;;;;;;4995421;28;20030;-86
2022/02/11 11:23:37;;;;;;;6.25;1.35;;;7.40;99.90;;;;;;5013139;28;20480;-85
2022/02/11 11:26:10;;;;;;;7.00;1.95;;;7.40;99.90;;;;;;5009058;28;20046;-81
2022/02/11 11:28:48;;;;;;;6.28;1.15;;;7.50;99.90;;;;;;5012248;28;20352;-80
2022/02/11 11:31:25;;;;;;;4.40;1.13;;;7.40;99.90;;;;;;5012289;28;20348;-82
2022/02/11 11:33:51;;;;;;;4.40;1.30;;;7.50;99.90;;;;;;5012002;28;20117;-78
2022/02/11 11:36:19;;;;;;;7.13;0.80;;;7.60;99.90;;;;;;4994819;28;20048;-84
2022/02/11 11:38:54;;;;;;;7.80;1.33;;;7.60;99.90;;;;;;5012231;28;20289;-78
2022/02/11 11:41:22;;;;;;;8.80;1.30;;;7.50;99.90;;;;;;5012063;28;20483;-82
2022/02/11 11:44:00;;;;;;;4.15;1.38;;;7.50;99.90;;;;;;5012139;28;20034;-79
2022/02/11 11:46:31;;;;;;;4.03;1.10;;;7.60;99.90;;;;;;5012153;28;20038;-83
2022/02/11 11:49:10;;;;;;;6.47;1.55;;;7.50;99.90;;;;;;4994190;28;20054;-81
2022/02/11 11:51:35;;;;;;;2.65;1.20;;;7.50;99.90;;;;;;4994546;28;20029;-81
2022/02/11 11:54:21;;;;;;;4.22;1.40;;;7.50;99.90;;;;;;4994949;28;20022;-82
2022/02/11 11:56:53;;;;;;;5.50;1.80;;;7.60;99.90;;;;;;4994623;28;20049;-82
2022/02/11 11:59:30;;;;;;;10.00;1.85;;;7.50;99.90;;;;;;4994381;28;20030;-83
2022/02/11 12:02:04;;;;;;;5.95;1.92;;;7.60;99.90;;;;;;4994545;28;20034;-75
2022/02/11 12:04:31;;;;;;;10.68;1.88;;;7.80;99.90;;;;;;5011995;28;20104;-75
2022/02/11 12:07:09;;;;;;;7.18;2.60;;;7.90;99.90;;;;;;4995474;28;20054;-75
2022/02/11 12:09:35;;;;;;;8.40;2.47;;;8.00;99.90;;;;;;5012319;28;20219;-77
2022/02/11 12:12:03;;;;;;;8.77;2.25;;;8.10;99.90;;;;;;5013171;28;20056;-76
2022/02/11 12:14:31;;;;;;;11.10;3.05;;;8.00;99.90;;;;;;4995621;28;20049;-89
2022/02/11 12:16:58;;;;;;;5.47;1.63;;;8.00;99.90;;;;;;5013444;28;20029;-83
2022/02/11 12:19:25;;;;;;;4.28;2.10;;;8.00;99.90;;;;;;5013412;28;20109;-84
2022/02/11 12:21:50;;;;;;;3.80;1.52;;;7.80;99.90;;;;;;4996556;28;20388;-81
2022/02/11 12:29:51;;;;;;;1.92;1.52;;;7.80;99.90;;;;;;5011537;28;20048;-78
2022/02/11 12:32:22;;;;;;;3.33;2.08;;;7.70;99.90;;;;;;4994654;28;20479;-76
2022/02/11 12:34:56;;;;;;;3.70;1.88;;;7.80;99.90;;;;;;5012355;28;20046;-77
2022/02/11 12:37:22;;;;;;;4.35;2.40;;;8.00;99.90;;;;;;5012564;28;20330;-87
2022/02/11 12:40:04;;;;;;;7.38;3.05;;;8.10;99.90;;;;;;5014195;28;20033;-83
2022/02/11 12:42:30;;;;;;;6.45;3.10;;;8.00;99.90;;;;;;4995576;28;20061;-81
2022/02/11 12:44:57;;;;;;;9.48;3.45;;;8.00;99.90;;;;;;5012888;28;20403;-80
2022/02/11 12:47:23;;;;;;;5.07;3.00;;;8.00;99.90;;;;;;5012594;28;20037;-81
2022/02/11 12:49:51;;;;;;;6.25;3.55;;;7.80;99.90;;;;;;5012385;28;20045;-78
2022/02/11 12:52:25;;;;;;;5.80;3.28;;;7.90;99.90;;;;;;5011702;28;20068;-78
2022/02/11 12:54:58;;;;;;;7.00;3.70;;;7.80;99.90;;;;;;5014762;28;20485;-85
2022/02/11 12:57:23;;;;;;;6.65;3.35;;;7.90;99.90;;;;;;5013790;28;20105;-76
2022/02/11 12:59:51;;;;;;;4.25;2.78;;;7.90;99.90;;;;;;5011720;28;20113;-81
2022/02/11 13:02:28;;;;;;;5.80;3.25;;;7.90;99.90;;;;;;5012631;28;20041;-80
2022/02/11 13:05:08;;;;;;;4.65;3.05;;;7.80;99.90;;;;;;5012362;28;20030;-78
2022/02/11 13:07:36;;;;;;;5.10;2.83;;;7.90;99.90;;;;;;5011858;28;20062;-79
2022/02/11 13:10:03;;;;;;;5.55;3.10;;;8.00;99.90;;;;;;5012200;28;20084;-78
2022/02/11 13:12:41;;;;;;;4.88;3.20;;;7.80;99.80;;;;;;4996324;28;20026;-82
2022/02/11 13:15:09;;;;;;;4.00;2.80;;;7.80;99.60;;;;;;5013049;28;20126;-80
2022/02/11 13:17:35;;;;;;;5.03;3.13;;;7.80;99.60;;;;;;5012309;28;20109;-81
2022/02/11 13:20:05;;;;;;;6.10;3.40;;;7.70;99.10;;;;;;5011672;28;20463;-81
2022/02/11 13:22:31;;;;;;;5.18;3.10;;;7.80;99.60;;;;;;5016691;28;20026;-85
2022/02/11 13:24:57;;;;;;;4.95;3.38;;;7.70;99.30;;;;;;4998404;28;20168;-84
2022/02/11 13:27:47;;;;;;;5.38;2.90;;;7.90;99.10;;;;;;5017294;28;20095;-83
2022/02/11 13:30:21;;;;;;;4.22;2.97;;;7.90;99.20;;;;;;4998997;28;20050;-82
2022/02/11 13:32:46;;;;;;;5.85;3.30;;;8.00;99.20;;;;;;5016681;28;20026;-86
2022/02/11 13:35:12;;;;;;;4.32;2.63;;;8.00;99.00;;;;;;5016683;28;20026;-85
2022/02/11 13:37:41;;;;;;;4.43;2.58;;;8.00;99.00;;;;;;5015842;28;20517;-83
2022/02/11 13:40:13;;;;;;;3.63;2.20;;;8.00;98.90;;;;;;5015714;28;20180;-74
2022/02/11 13:42:39;;;;;;;6.45;2.17;;;8.10;98.80;;;;;;5016151;28;20041;-91
2022/02/11 13:45:12;;;;;;;2.15;1.73;;;8.10;98.50;;;;;;5017108;28;20018;-82
2022/02/11 13:47:38;;;;;;;2.83;2.03;;;8.10;98.50;;;;;;5006749;28;20034;-85
2022/02/11 13:50:05;;;;;;;7.75;2.60;;;8.10;98.80;;;;;;4998395;28;20178;-82
2022/02/11 13:55:16;;;;;;;3.50;2.30;;;8.10;98.70;;;;;;5000189;28;20038;-86
2022/02/11 13:57:42;;;;;;;3.28;2.47;;;8.00;98.50;;;;;;4981145;28;20023;-81
2022/02/11 14:00:33;;;;;;;5.20;2.67;;;8.10;98.60;;;;;;4998148;28;20041;-79
2022/02/11 14:02:58;;;;;;;4.53;2.25;;;8.10;98.40;;;;;;4998040;28;20092;-80
2022/02/11 14:05:24;;;;;;;17.58;8.13;;;8.20;98.50;;;;;;4997072;28;20034;-82
2022/02/11 14:07:53;;;;;;;7.70;2.92;;;8.20;98.40;;;;;;4996675;28;20121;-84
2022/02/11 14:10:18;;;;;;;3.25;1.92;;;8.20;98.30;;;;;;4995982;28;20037;-77
2022/02/11 14:12:44;;;;;;;6.88;2.50;;;8.10;98.20;;;;;;4995191;28;20023;-83
2022/02/11 14:15:10;;;;;;;5.63;2.45;;;8.00;98.50;;;;;;4979402;28;20472;-82
2022/02/11 14:17:36;;;;;;;4.65;2.40;;;8.20;98.50;;;;;;4996304;28;20046;-79
2022/02/11 14:20:03;;;;;;;4.90;2.47;;;8.10;98.40;;;;;;4994295;28;20057;-87
2022/02/11 14:22:30;;;;;;;5.30;2.65;;;8.20;98.50;;;;;;4994676;28;20034;-85
2022/02/11 14:24:56;;;;;;;4.72;2.70;;;8.20;98.30;;;;;;4993690;28;20372;-79
2022/02/11 14:27:21;;;;;;;9.50;2.38;;;8.20;98.30;;;;;;4993993;28;20015;-76
2022/02/11 14:29:47;;;;;;;5.32;2.30;;;8.00;98.30;;;;;;4993602;28;20038;-77
2022/02/11 14:32:13;;;;;;;2.33;1.90;;;7.90;98.60;;;;;;4976573;28;20340;-81
2022/02/11 14:34:41;;;;;;;3.67;1.50;;;7.60;98.70;;;;;;4976537;28;20038;-80
2022/02/11 14:37:06;;;;;;;6.22;1.77;;;7.70;99.10;;;;;;4993594;28;20619;-81
2022/02/11 14:39:32;;;;;;;13.90;4.28;;;7.80;98.50;;;;;;4993784;28;20038;-80
2022/02/11 14:42:01;;;;;;;6.22;3.10;;;7.70;98.60;;;;;;4993356;28;20090;-75
2022/02/11 14:44:29;;;;;;;5.97;1.50;;;7.70;98.20;;;;;;4975940;28;20464;-79
2022/02/11 14:46:56;;;;;;;5.93;2.13;;;7.90;97.80;;;;;;4992472;28;20038;-85
2022/02/11 14:49:23;;;;;;;5.20;1.02;;;7.80;96.70;;;;;;4993387;28;20034;-82
2022/02/11 14:52:04;;;;;;;3.40;0.80;;;7.90;96.20;;;;;;4993115;28;20026;-85
2022/02/11 14:54:32;;;;;;;3.80;0.80;;;7.70;95.60;;;;;;4993678;28;20031;-76
2022/02/11 14:56:57;;;;;;;3.38;0.98;;;7.80;95.80;;;;;;4993413;28;20046;-77
2022/02/11 14:59:24;;;;;;;2.95;0.80;;;7.80;95.80;;;;;;4993424;28;20042;-82
2022/02/11 15:01:51;;;;;;;6.18;1.17;;;7.70;95.60;;;;;;4993013;28;20057;-80
2022/02/11 15:04:17;;;;;;;6.60;0.90;;;7.70;95.30;;;;;;4975673;28;20114;-78
2022/02/11 15:06:46;;;;;;;5.35;1.15;;;7.60;95.30;;;;;;4991697;28;20113;-81
2022/02/11 15:09:13;;;;;;;3.08;1.17;;;7.70;95.90;;;;;;4993712;28;20474;-79
2022/02/11 15:11:39;;;;;;;6.07;1.25;;;7.70;95.70;;;;;;4975484;28;20029;-83
2022/02/11 15:14:04;;;;;;;10.65;2.08;;;7.70;95.70;;;;;;4992803;28;20031;-76
2022/02/11 15:16:30;;;;;;;12.70;1.98;;;7.80;96.00;;;;;;4992829;28;20042;-76
2022/02/11 15:18:56;;;;;;;6.05;1.17;;;7.90;95.90;;;;;;4991938;28;20026;-81
2022/02/11 15:21:23;;;;;;;11.32;1.60;;;7.80;95.60;;;;;;4992754;28;20132;-82
2022/02/11 15:23:49;;;;;;;5.20;1.80;;;7.80;95.50;;;;;;4992856;28;20097;-79
2022/02/11 15:26:17;;;;;;;5.50;1.33;;;7.80;95.40;;;;;;4977437;28;20122;-77
2022/02/11 15:28:43;;;;;;;8.98;1.42;;;7.70;95.40;;;;;;4992558;28;20114;-88
2022/02/11 15:31:11;;;;;;;4.72;1.65;;;7.80;95.30;;;;;;4992745;28;20169;-82
2022/02/11 15:33:38;;;;;;;10.10;2.40;;;7.70;95.40;;;;;;4992230;28;20023;-76
2022/02/11 15:36:05;;;;;;;10.70;1.75;;;7.70;95.40;;;;;;4992658;28;20010;-75
2022/02/11 15:38:31;;;;;;;5.63;1.17;;;7.70;95.50;;;;;;4992318;28;20423;-76
2022/02/11 15:40:56;;;;;;;7.18;1.98;;;7.70;95.50;;;;;;4992237;28;20105;-74
2022/02/11 15:43:23;;;;;;;10.55;1.58;;;7.80;95.60;;;;;;4991871;28;20034;-76
2022/02/11 15:45:49;;;;;;;6.43;1.77;;;7.60;95.50;;;;;;4992239;28;20034;-78
2022/02/11 15:48:14;;;;;;;5.38;1.35;;;7.50;95.50;;;;;;4992456;28;20411;-77
2022/02/11 15:50:41;;;;;;;10.85;1.90;;;7.40;95.50;;;;;;4991992;28;20034;-80
2022/02/11 15:53:11;;;;;;;6.32;2.15;;;7.30;95.60;;;;;;4992035;28;20108;-81
2022/02/11 15:55:37;;;;;;;6.47;2.15;;;7.60;95.80;;;;;;4991819;28;20376;-78
2022/02/11 15:58:03;;;;;;;6.15;1.88;;;7.50;95.80;;;;;;4974791;28;20038;-77
2022/02/11 16:00:29;;;;;;;8.43;1.58;;;7.30;96.30;;;;;;4992477;28;20026;-77
2022/02/11 16:02:54;;;;;;;6.88;1.42;;;7.20;96.90;;;;;;4992557;28;20031;-78
2022/02/11 16:05:20;;;;;;;6.00;1.48;;;7.10;97.00;;;;;;4992325;28;20023;-72
2022/02/11 16:07:46;;;;;;;10.95;3.20;;;7.20;97.00;;;;;;4992195;28;20030;-78
2022/02/11 16:10:11;;;;;;;12.48;3.00;;;7.30;96.90;;;;;;5000037;28;20037;-78
2022/02/11 16:12:37;;;;;;;6.63;2.60;;;7.30;96.80;;;;;;4981752;28;20069;-77
2022/02/11 16:15:04;;;;;;;12.60;2.05;;;7.30;96.80;;;;;;4997814;28;20034;-78
2022/02/11 16:17:32;;;;;;;10.02;2.38;;;7.40;96.90;;;;;;4991729;28;20038;-76
2022/02/11 16:19:58;;;;;;;8.32;2.28;;;7.20;96.70;;;;;;4991342;28;20030;-77
2022/02/11 16:22:26;;;;;;;13.90;2.38;;;7.30;96.80;;;;;;4974185;28;20452;-77
2022/02/11 16:24:52;;;;;;;14.13;2.22;;;7.20;96.30;;;;;;4971449;28;20050;-75
2022/02/11 16:27:18;;;;;;;10.75;2.25;;;7.10;96.40;;;;;;4973684;28;20041;-81
2022/02/11 16:29:45;;;;;;;9.85;2.33;;;7.10;96.20;;;;;;4974571;28;20030;-78
2022/02/11 16:32:11;;;;;;;10.52;1.80;;;6.90;95.50;;;;;;4975466;28;20034;-78
2022/02/11 16:34:37;;;;;;;5.72;1.80;;;6.90;95.00;;;;;;4988328;28;20030;-76
2022/02/11 16:37:03;;;;;;;7.93;1.70;;;6.80;93.90;;;;;;4996463;28;20030;-77
2022/02/11 16:39:29;;;;;;;12.73;1.83;;;6.80;93.20;;;;;;4993924;28;20120;-75
2022/02/11 16:41:55;;;;;;;7.85;1.27;;;6.90;93.30;;;;;;4995406;28;20034;-78
2022/02/11 16:44:22;;;;;;;6.05;1.98;;;6.80;92.80;;;;;;4992680;28;20430;-77